createdAt,value
2017-04-27T00:01:39.415Z,10.07
2017-04-27T00:04:07.692Z,9.57
2017-04-27T00:06:35.984Z,9.27
2017-04-27T00:09:04.276Z,9.80
2017-04-27T00:11:32.593Z,10.03
2017-04-27T00:14:01.613Z,9.63
2017-04-27T00:16:29.893Z,9.88
2017-04-27T00:18:58.221Z,9.10
2017-04-27T00:21:26.500Z,9.78
2017-04-27T00:23:54.777Z,9.30
2017-04-27T00:26:23.089Z,10.68
2017-04-27T00:28:51.367Z,10.17
2017-04-27T00:31:19.640Z,9.68
2017-04-27T00:33:47.964Z,9.90
2017-04-27T00:36:16.233Z,9.33
2017-04-27T00:38:44.507Z,8.52
2017-04-27T00:41:12.804Z,9.27
2017-04-27T00:43:41.077Z,9.40
2017-04-27T00:46:09.377Z,9.25
2017-04-27T00:48:37.660Z,10.43
2017-04-27T00:51:05.953Z,9.20
2017-04-27T00:53:34.967Z,8.08
2017-04-27T00:56:03.275Z,8.85
2017-04-27T00:58:31.569Z,7.77
2017-04-27T01:00:59.874Z,7.13
2017-04-27T01:03:28.900Z,8.25
2017-04-27T01:05:57.168Z,7.53
2017-04-27T01:08:25.464Z,7.22
2017-04-27T01:10:53.741Z,7.20
2017-04-27T01:13:22.043Z,7.85
2017-04-27T01:15:50.325Z,7.33
2017-04-27T01:18:18.625Z,7.53
2017-04-27T01:20:46.903Z,7.95
2017-04-27T01:23:15.181Z,7.17
2017-04-27T01:25:43.481Z,7.30
2017-04-27T01:28:12.496Z,8.45
2017-04-27T01:30:40.790Z,7.58
2017-04-27T01:33:09.065Z,7.12
2017-04-27T01:35:37.362Z,7.67
2017-04-27T01:38:05.635Z,7.83
2017-04-27T01:40:33.935Z,6.57
2017-04-27T01:43:02.219Z,6.15
2017-04-27T01:45:30.523Z,6.92
2017-04-27T01:47:58.819Z,6.88
2017-04-27T01:50:27.097Z,8.75
2017-04-27T01:52:55.388Z,6.82
2017-04-27T01:55:23.659Z,7.95
2017-04-27T01:57:51.951Z,6.90
2017-04-27T02:00:20.227Z,8.95
2017-04-27T02:02:48.603Z,8.68
2017-04-27T02:05:16.884Z,8.27
2017-04-27T02:07:45.165Z,8.58
2017-04-27T02:10:13.459Z,9.98
2017-04-27T02:12:41.744Z,9.58
2017-04-27T02:15:10.041Z,8.12
2017-04-27T02:17:38.323Z,8.88
2017-04-27T02:20:07.380Z,7.98
2017-04-27T02:22:35.652Z,8.10
2017-04-27T02:25:03.953Z,8.33
2017-04-27T02:27:32.229Z,8.70
2017-04-27T02:30:00.564Z,9.02
2017-04-27T02:32:28.839Z,9.05
2017-04-27T02:34:57.115Z,8.98
2017-04-27T02:37:25.423Z,9.18
2017-04-27T02:39:53.704Z,9.35
2017-04-27T02:42:22.021Z,9.70
2017-04-27T02:44:51.040Z,9.02
2017-04-27T02:47:19.333Z,9.25
2017-04-27T02:49:47.642Z,8.95
2017-04-27T02:52:15.920Z,8.95
2017-04-27T02:54:44.191Z,9.38
2017-04-27T02:57:12.495Z,9.77
2017-04-27T02:59:40.772Z,10.30
2017-04-27T03:02:09.078Z,10.88
2017-04-27T03:04:37.364Z,10.45
2017-04-27T03:07:05.659Z,10.17
2017-04-27T03:09:33.936Z,11.60
2017-04-27T03:12:02.237Z,12.12
2017-04-27T03:14:30.560Z,14.12
2017-04-27T03:16:58.836Z,13.27
2017-04-27T03:19:27.135Z,14.17
2017-04-27T03:21:55.409Z,14.12
2017-04-27T03:24:23.701Z,14.88
2017-04-27T03:26:51.972Z,13.47
2017-04-27T03:29:20.268Z,14.00
2017-04-27T03:31:48.545Z,14.23
2017-04-27T03:34:16.869Z,15.50
2017-04-27T03:36:45.919Z,13.78
2017-04-27T03:39:14.189Z,14.77
2017-04-27T03:41:42.490Z,14.72
2017-04-27T03:44:10.781Z,14.90
2017-04-27T03:46:39.079Z,15.48
2017-04-27T03:49:08.105Z,16.10
2017-04-27T03:51:36.400Z,14.72
2017-04-27T03:54:04.676Z,15.08
2017-04-27T03:56:32.980Z,15.12
2017-04-27T03:59:01.253Z,16.13
2017-04-27T04:01:29.561Z,15.72
2017-04-27T04:03:57.851Z,14.23
2017-04-27T04:06:26.872Z,16.22
2017-04-27T04:08:55.185Z,15.82
2017-04-27T04:11:23.469Z,18.12
2017-04-27T04:13:51.744Z,18.07
2017-04-27T04:16:20.040Z,17.93
2017-04-27T04:18:48.316Z,19.37
2017-04-27T04:21:16.613Z,20.22
2017-04-27T04:23:45.637Z,19.02
2017-04-27T04:26:13.945Z,18.25
2017-04-27T04:28:42.222Z,17.32
2017-04-27T04:31:10.524Z,19.33
2017-04-27T04:33:38.801Z,19.85
2017-04-27T04:36:07.101Z,18.12
2017-04-27T04:38:35.376Z,18.48
2017-04-27T04:41:04.417Z,19.42
2017-04-27T04:43:32.697Z,18.60
2017-04-27T04:46:00.979Z,20.57
2017-04-27T04:48:29.277Z,19.22
2017-04-27T04:50:57.551Z,20.43
2017-04-27T04:53:25.869Z,19.33
2017-04-27T04:55:54.884Z,18.97
2017-04-27T04:58:24.191Z,19.73
2017-04-27T05:00:52.472Z,19.08
2017-04-27T05:03:20.764Z,20.10
2017-04-27T05:05:49.070Z,20.03
2017-04-27T05:08:17.345Z,19.67
2017-04-27T05:10:45.651Z,20.30
2017-04-27T05:13:14.670Z,19.73
2017-04-27T05:15:42.981Z,19.47
2017-04-27T05:18:11.261Z,19.53
2017-04-27T05:20:39.590Z,20.07
2017-04-27T05:23:08.630Z,19.32
2017-04-27T05:25:36.907Z,22.23
2017-04-27T05:28:05.225Z,20.23
2017-04-27T05:30:34.263Z,22.43
2017-04-27T05:33:02.571Z,22.07
2017-04-27T05:35:30.848Z,21.03
2017-04-27T05:37:59.218Z,20.93
2017-04-27T05:40:27.501Z,20.07
2017-04-27T05:42:55.786Z,20.02
2017-04-27T05:45:25.036Z,21.18
2017-04-27T05:47:53.313Z,23.25
2017-04-27T05:50:21.620Z,22.07
2017-04-27T05:52:49.920Z,21.70
2017-04-27T05:55:18.241Z,20.95
2017-04-27T05:57:47.257Z,20.53
2017-04-27T06:00:15.535Z,22.02
2017-04-27T06:02:43.834Z,20.47
2017-04-27T06:05:12.120Z,20.83
2017-04-27T06:07:40.426Z,20.62
2017-04-27T06:10:08.802Z,20.65
2017-04-27T06:12:37.116Z,21.27
2017-04-27T06:15:05.395Z,19.50
2017-04-27T06:17:33.673Z,19.88
2017-04-27T06:20:02.081Z,20.55
2017-04-27T06:22:30.373Z,18.72
2017-04-27T06:24:58.691Z,19.92
2017-04-27T06:27:27.722Z,18.85
2017-04-27T06:29:56.025Z,18.38
2017-04-27T06:32:24.322Z,18.93
2017-04-27T06:34:52.597Z,19.40
2017-04-27T06:37:20.908Z,18.92
2017-04-27T06:39:49.192Z,18.92
2017-04-27T06:42:17.486Z,17.63
2017-04-27T06:44:45.791Z,19.62
2017-04-27T06:47:14.076Z,18.60
2017-04-27T06:49:42.377Z,18.52
2017-04-27T06:52:11.405Z,17.48
2017-04-27T06:54:39.716Z,16.27
2017-04-27T06:57:08.005Z,17.60
2017-04-27T06:59:36.291Z,17.20
2017-04-27T07:02:05.561Z,16.48
2017-04-27T07:04:33.840Z,16.27
2017-04-27T07:07:02.177Z,16.60
2017-04-27T07:09:30.875Z,18.18
2017-04-27T07:11:59.160Z,17.27
2017-04-27T07:14:28.488Z,16.02
2017-04-27T07:16:56.788Z,16.50
2017-04-27T07:19:25.068Z,16.85
2017-04-27T07:21:53.383Z,17.22
2017-04-27T07:26:39.659Z,15.42
2017-04-27T07:29:07.978Z,14.80
2017-04-27T07:31:36.272Z,14.35
2017-04-27T07:34:04.589Z,13.62
2017-04-27T07:36:32.894Z,14.05
2017-04-27T07:39:02.027Z,16.98
2017-04-27T07:41:30.340Z,16.17
2017-04-27T07:43:58.628Z,15.50
2017-04-27T07:46:26.944Z,14.88
2017-04-27T07:48:55.236Z,14.90
2017-04-27T07:51:23.556Z,17.67
2017-04-27T07:53:53.833Z,16.15
2017-04-27T07:56:22.263Z,17.80
2017-04-27T07:58:50.549Z,17.25
2017-04-27T08:01:19.805Z,18.18
2017-04-27T08:03:48.124Z,16.02
2017-04-27T08:06:16.420Z,17.18
2017-04-27T08:08:44.724Z,18.85
2017-04-27T08:11:13.029Z,17.68
2017-04-27T08:13:41.360Z,16.83
2017-04-27T08:16:10.401Z,18.42
2017-04-27T08:18:38.695Z,15.78
2017-04-27T08:21:07.066Z,15.48
2017-04-27T08:23:35.364Z,14.43
2017-04-27T08:26:03.651Z,14.83
2017-04-27T08:28:31.978Z,14.75
2017-04-27T08:31:00.281Z,12.95
2017-04-27T08:33:28.588Z,13.92
2017-04-27T08:35:56.884Z,13.12
2017-04-27T08:38:25.955Z,13.98
2017-04-27T08:40:54.249Z,13.57
2017-04-27T08:43:22.551Z,14.53
2017-04-27T08:45:50.856Z,14.20
2017-04-27T08:48:19.153Z,12.83
2017-04-27T08:50:47.526Z,12.95
2017-04-27T08:53:15.812Z,12.48
2017-04-27T08:55:44.148Z,13.13
2017-04-27T08:58:12.449Z,11.90
2017-04-27T09:00:40.738Z,12.48
2017-04-27T09:03:09.053Z,13.90
2017-04-27T09:05:37.336Z,13.25
2017-04-27T09:08:06.408Z,12.12
2017-04-27T09:10:34.698Z,10.60
2017-04-27T09:13:02.993Z,11.87
2017-04-27T09:15:32.045Z,11.33
2017-04-27T09:18:00.345Z,11.62
2017-04-27T09:20:28.648Z,11.95
2017-04-27T09:22:57.680Z,12.70
2017-04-27T09:25:25.991Z,12.68
2017-04-27T09:27:54.284Z,11.53
2017-04-27T09:30:22.621Z,10.52
2017-04-27T09:32:50.926Z,12.90
2017-04-27T09:35:19.222Z,11.92
2017-04-27T09:37:47.541Z,11.20
2017-04-27T09:40:15.828Z,11.15
2017-04-27T09:42:44.140Z,11.53
2017-04-27T09:45:12.443Z,12.58
2017-04-27T09:47:42.421Z,12.20
2017-04-27T09:50:10.705Z,10.98
2017-04-27T09:52:38.999Z,11.75
2017-04-27T09:55:07.328Z,11.57
2017-04-27T09:57:35.615Z,12.67
2017-04-27T10:00:03.916Z,12.17
2017-04-27T10:02:32.237Z,12.00
2017-04-27T10:05:01.269Z,10.47
2017-04-27T10:07:29.578Z,11.62
2017-04-27T10:09:57.889Z,11.88
2017-04-27T10:12:26.980Z,10.62
2017-04-27T10:14:56.017Z,11.12
2017-04-27T10:17:24.329Z,11.23
2017-04-27T10:19:55.343Z,10.60
2017-04-27T10:22:23.656Z,10.73
2017-04-27T10:24:51.972Z,11.03
2017-04-27T10:27:20.269Z,9.97
2017-04-27T10:29:48.578Z,10.75
2017-04-27T10:32:17.829Z,9.97
2017-04-27T10:34:46.161Z,8.78
2017-04-27T10:37:14.456Z,7.63
2017-04-27T10:39:43.500Z,9.88
2017-04-27T10:42:11.819Z,8.80
2017-04-27T10:44:40.148Z,9.53
2017-04-27T10:47:08.455Z,9.85
2017-04-27T10:49:36.745Z,9.72
2017-04-27T10:52:05.967Z,10.13
2017-04-27T10:54:35.204Z,10.17
2017-04-27T10:57:03.525Z,10.10
2017-04-27T10:59:31.803Z,9.42
2017-04-27T11:02:00.089Z,8.78
2017-04-27T11:04:29.362Z,9.28
2017-04-27T11:06:57.659Z,7.90
2017-04-27T11:09:25.984Z,6.90
2017-04-27T11:11:54.272Z,10.05
2017-04-27T11:14:22.561Z,8.45
2017-04-27T11:16:50.879Z,8.18
2017-04-27T11:19:19.170Z,9.58
2017-04-27T11:21:48.208Z,10.28
2017-04-27T11:24:16.539Z,10.77
2017-04-27T11:26:44.831Z,9.38
2017-04-27T11:29:13.867Z,9.15
2017-04-27T11:31:42.202Z,10.60
2017-04-27T11:34:11.261Z,9.83
2017-04-27T11:36:49.363Z,10.08
2017-04-27T11:39:08.856Z,9.75
2017-04-27T11:41:37.146Z,10.00
2017-04-27T11:44:05.458Z,10.23
2017-04-27T11:46:33.739Z,9.70
2017-04-27T11:49:02.049Z,9.08
2017-04-27T11:51:30.337Z,10.47
2017-04-27T11:53:58.628Z,10.28
2017-04-27T11:56:26.964Z,9.72
2017-04-27T11:58:55.268Z,10.25
2017-04-27T12:03:58.188Z,11.02
2017-04-27T12:06:26.477Z,10.73
2017-04-27T12:08:54.769Z,10.47
2017-04-27T12:11:23.839Z,10.33
2017-04-27T12:13:52.125Z,10.42
2017-04-27T12:16:20.415Z,9.75
2017-04-27T12:18:49.468Z,9.90
2017-04-27T12:21:17.760Z,9.18
2017-04-27T12:23:46.449Z,8.38
2017-04-27T12:26:14.732Z,9.12
2017-04-27T12:28:43.033Z,9.92
2017-04-27T12:31:12.080Z,8.53
2017-04-27T12:33:40.391Z,7.90
2017-04-27T12:36:08.711Z,9.15
2017-04-27T12:38:39.034Z,8.87
2017-04-27T12:41:08.359Z,9.28
2017-04-27T12:43:36.652Z,9.27
2017-04-27T12:46:04.975Z,9.72
2017-04-27T12:48:34.001Z,9.23
2017-04-27T12:51:02.298Z,9.35
2017-04-27T12:53:30.601Z,10.48
2017-04-27T12:55:58.903Z,9.37
2017-04-27T12:58:27.207Z,10.70
2017-04-27T13:00:55.508Z,10.87
2017-04-27T13:03:23.843Z,10.28
2017-04-27T13:05:52.885Z,9.47
2017-04-27T13:08:21.187Z,9.98
2017-04-27T13:10:49.508Z,9.73
2017-04-27T13:13:17.803Z,10.00
2017-04-27T13:15:46.119Z,9.73
2017-04-27T13:18:14.417Z,9.57
2017-04-27T13:20:43.484Z,9.18
2017-04-27T13:23:11.780Z,10.60
2017-04-27T13:25:42.045Z,9.65
2017-04-27T13:28:10.369Z,8.05
2017-04-27T13:30:38.651Z,9.32
2017-04-27T13:33:06.946Z,9.67
2017-04-27T13:35:35.276Z,9.23
2017-04-27T13:38:03.556Z,8.92
2017-04-27T13:40:31.838Z,8.90
2017-04-27T13:43:00.172Z,9.68
2017-04-27T13:45:29.208Z,9.45
2017-04-27T13:47:57.497Z,9.63
2017-04-27T13:50:25.809Z,10.08
2017-04-27T13:52:54.088Z,7.93
2017-04-27T13:55:22.394Z,8.43
2017-04-27T13:57:50.681Z,8.20
2017-04-27T14:00:19.003Z,9.17
2017-04-27T14:02:47.319Z,9.10
2017-04-27T14:05:16.407Z,10.08
2017-04-27T14:07:46.363Z,9.07
2017-04-27T14:10:14.652Z,8.88
2017-04-27T14:12:42.954Z,9.22
2017-04-27T14:15:11.253Z,9.00
2017-04-27T14:17:39.564Z,8.33
2017-04-27T14:20:07.865Z,6.68
2017-04-27T14:22:36.157Z,8.43
2017-04-27T14:25:04.468Z,7.52
2017-04-27T14:27:32.756Z,8.40
2017-04-27T14:30:01.840Z,8.60
2017-04-27T14:32:30.885Z,7.78
2017-04-27T14:34:59.176Z,7.52
2017-04-27T14:37:27.498Z,7.80
2017-04-27T14:39:55.793Z,8.10
2017-04-27T14:42:24.097Z,7.80
2017-04-27T14:44:55.450Z,9.24
2017-04-27T14:47:26.915Z,7.55
2017-04-27T14:49:56.197Z,8.35
2017-04-27T14:52:24.523Z,7.78
2017-04-27T14:54:53.713Z,6.97
2017-04-27T14:57:22.061Z,8.57
2017-04-27T14:59:50.346Z,7.32
2017-04-27T15:02:18.625Z,8.47
2017-04-27T15:04:46.936Z,7.15
2017-04-27T15:07:15.223Z,8.12
2017-04-27T15:09:43.557Z,7.97
2017-04-27T15:12:11.857Z,8.58
2017-04-27T15:14:40.140Z,8.32
2017-04-27T15:17:08.459Z,9.17
2017-04-27T15:19:36.749Z,8.43
2017-04-27T15:22:05.058Z,8.43
2017-04-27T15:24:33.346Z,6.88
2017-04-27T15:27:01.653Z,8.05
2017-04-27T15:29:38.837Z,7.80
2017-04-27T15:32:07.909Z,7.72
2017-04-27T15:34:36.189Z,8.73
2017-04-27T15:37:04.480Z,7.97
2017-04-27T15:39:33.692Z,8.20
2017-04-27T15:42:02.725Z,9.62
2017-04-27T15:44:31.026Z,8.08
2017-04-27T15:46:59.327Z,9.35
2017-04-27T15:49:28.617Z,9.10
2017-04-27T15:51:56.918Z,10.35
2017-04-27T15:54:27.916Z,9.30
2017-04-27T15:56:57.205Z,8.72
2017-04-27T15:59:25.495Z,9.43
2017-04-27T16:01:53.821Z,9.33
2017-04-27T16:04:22.860Z,10.42
2017-04-27T16:06:51.189Z,10.10
2017-04-27T16:09:19.485Z,10.63
2017-04-27T16:11:48.525Z,10.78
2017-04-27T16:14:16.835Z,10.55
2017-04-27T16:16:45.134Z,10.60
2017-04-27T16:19:14.185Z,11.85
2017-04-27T16:21:42.500Z,10.77
2017-04-27T16:24:12.574Z,10.25
2017-04-27T16:26:40.870Z,10.18
2017-04-27T16:29:09.429Z,11.40
2017-04-27T16:31:37.793Z,11.07
2017-04-27T16:34:06.206Z,11.12
2017-04-27T16:36:34.738Z,11.17
2017-04-27T16:39:03.926Z,11.75
2017-04-27T16:41:32.306Z,9.58
2017-04-27T16:44:01.361Z,10.05
2017-04-27T16:46:29.683Z,10.62
2017-04-27T16:48:58.837Z,8.93
2017-04-27T16:51:27.138Z,8.63
2017-04-27T16:53:55.477Z,8.52
2017-04-27T16:56:23.766Z,9.97
2017-04-27T16:58:52.083Z,9.25
2017-04-27T17:01:20.373Z,10.28
2017-04-27T17:03:49.443Z,9.75
2017-04-27T17:06:17.743Z,9.73
2017-04-27T17:08:46.060Z,10.25
2017-04-27T17:11:14.399Z,9.18
2017-04-27T17:13:42.720Z,8.37
2017-04-27T17:16:11.025Z,9.20
2017-04-27T17:18:39.390Z,9.92
2017-04-27T17:21:07.697Z,9.53
2017-04-27T17:23:35.983Z,9.42
2017-04-27T17:26:04.295Z,8.10
2017-04-27T17:28:32.606Z,8.67
2017-04-27T17:31:00.984Z,7.70
2017-04-27T17:33:29.259Z,8.47
2017-04-27T17:35:57.584Z,9.07
2017-04-27T17:38:25.897Z,6.60
2017-04-27T17:40:54.181Z,8.97
2017-04-27T17:43:22.501Z,7.17
2017-04-27T17:45:50.829Z,7.42
2017-04-27T17:48:19.177Z,8.02
2017-04-27T17:50:47.530Z,7.20
2017-04-27T17:53:16.612Z,7.82
2017-04-27T17:55:44.921Z,7.58
2017-04-27T17:58:13.232Z,8.62
2017-04-27T18:00:42.295Z,8.38
2017-04-27T18:03:10.583Z,7.67
2017-04-27T18:05:39.640Z,8.70
2017-04-27T18:08:07.933Z,8.15
2017-04-27T18:10:36.272Z,8.68
2017-04-27T18:13:04.568Z,8.57
2017-04-27T18:15:32.876Z,9.65
2017-04-27T18:18:01.188Z,10.70
2017-04-27T18:20:29.505Z,10.42
2017-04-27T18:22:57.821Z,13.80
2017-04-27T18:25:26.129Z,11.12
2017-04-27T18:27:55.253Z,10.33
2017-04-27T18:30:23.602Z,8.98
2017-04-27T18:32:52.696Z,8.88
2017-04-27T18:35:21.729Z,9.70
2017-04-27T18:37:50.012Z,9.52
2017-04-27T18:40:18.325Z,8.67
2017-04-27T18:42:46.636Z,10.10
2017-04-27T18:45:15.704Z,9.72
2017-04-27T18:47:43.988Z,9.97
2017-04-27T18:50:12.301Z,9.85
2017-04-27T18:52:40.601Z,11.12
2017-04-27T18:55:08.930Z,12.17
2017-04-27T18:57:37.238Z,11.57
2017-04-27T19:00:05.584Z,10.72
2017-04-27T19:02:33.884Z,12.12
2017-04-27T19:05:02.224Z,10.12
2017-04-27T19:07:30.522Z,10.67
2017-04-27T19:09:59.557Z,10.82
2017-04-27T19:12:27.900Z,10.95
2017-04-27T19:14:56.941Z,11.03
2017-04-27T19:17:25.261Z,11.20
2017-04-27T19:19:53.544Z,10.98
2017-04-27T19:22:21.888Z,11.67
2017-04-27T19:24:50.184Z,12.37
2017-04-27T19:27:18.476Z,11.97
2017-04-27T19:29:46.793Z,12.18
2017-04-27T19:32:15.096Z,12.38
2017-04-27T19:34:43.418Z,13.82
2017-04-27T19:37:11.713Z,12.03
2017-04-27T19:39:40.768Z,12.48
2017-04-27T19:42:09.085Z,12.15
2017-04-27T19:44:38.161Z,13.23
2017-04-27T19:47:06.487Z,12.90
2017-04-27T19:49:34.817Z,13.17
2017-04-27T19:52:03.144Z,13.85
2017-04-27T19:54:31.476Z,12.38
2017-04-27T19:57:00.588Z,12.95
2017-04-27T19:59:29.637Z,12.40
2017-04-27T20:01:58.017Z,12.93
2017-04-27T20:04:26.329Z,12.68
2017-04-27T20:06:54.652Z,12.03
2017-04-27T20:09:22.985Z,11.82
2017-04-27T20:11:51.274Z,11.15
2017-04-27T20:14:19.587Z,11.00
2017-04-27T20:16:47.898Z,11.83
2017-04-27T20:19:16.212Z,10.35
2017-04-27T20:21:45.254Z,9.43
2017-04-27T20:24:13.576Z,8.92
2017-04-27T20:26:41.870Z,10.92
2017-04-27T20:29:10.947Z,9.87
2017-04-27T20:31:39.993Z,9.47
2017-04-27T20:34:08.285Z,8.67
2017-04-27T20:36:36.690Z,9.68
2017-04-27T20:39:05.011Z,10.58
2017-04-27T20:41:33.316Z,8.97
2017-04-27T20:44:01.604Z,8.58
2017-04-27T20:46:29.916Z,6.77
2017-04-27T20:48:58.211Z,5.88
2017-04-27T20:51:27.290Z,6.45
2017-04-27T20:53:56.340Z,6.22
2017-04-27T20:56:24.629Z,4.92
2017-04-27T20:58:52.960Z,6.30
2017-04-27T21:01:22.029Z,5.83
2017-04-27T21:03:50.332Z,5.33
2017-04-27T21:06:19.369Z,7.58
2017-04-27T21:08:47.685Z,6.90
2017-04-27T21:11:15.976Z,6.25
2017-04-27T21:13:44.283Z,7.73
2017-04-27T21:16:12.603Z,9.30
2017-04-27T21:18:40.915Z,10.18
2017-04-27T21:21:09.971Z,9.38
2017-04-27T21:23:38.287Z,10.52
2017-04-27T21:26:06.809Z,8.97
2017-04-27T21:28:35.120Z,9.18
2017-04-27T21:31:03.615Z,7.42
2017-04-27T21:33:31.913Z,8.27
2017-04-27T21:36:01.012Z,6.77
2017-04-27T21:38:30.061Z,7.52
2017-04-27T21:40:58.621Z,7.13
2017-04-27T21:43:26.980Z,7.05
2017-04-27T21:45:55.273Z,7.30
2017-04-27T21:48:23.581Z,8.57
2017-04-27T21:50:51.887Z,8.07
2017-04-27T21:53:20.214Z,8.18
2017-04-27T21:55:48.508Z,10.58
2017-04-27T21:58:16.828Z,9.27
2017-04-27T22:00:45.140Z,10.87
2017-04-27T22:03:13.481Z,11.27
2017-04-27T22:05:41.793Z,11.55
2017-04-27T22:08:10.538Z,11.00
2017-04-27T22:10:38.853Z,11.15
2017-04-27T22:13:07.165Z,13.05
2017-04-27T22:15:39.377Z,12.77
2017-04-27T22:18:07.746Z,13.23
2017-04-27T22:20:36.141Z,12.70
2017-04-27T22:23:04.449Z,13.48
2017-04-27T22:25:32.757Z,13.53
2017-04-27T22:28:01.239Z,13.45
2017-04-27T22:30:32.518Z,12.53
2017-04-27T22:33:02.280Z,12.38
2017-04-27T22:35:30.607Z,14.48
2017-04-27T22:37:59.805Z,14.25
2017-04-27T22:40:28.107Z,15.10
2017-04-27T22:42:56.415Z,15.88
2017-04-27T22:45:24.777Z,15.77
2017-04-27T22:47:53.911Z,16.17
2017-04-27T22:50:23.809Z,16.23
2017-04-27T22:52:52.130Z,15.10
2017-04-27T22:55:20.449Z,16.73
2017-04-27T22:57:49.248Z,15.97
2017-04-27T23:00:19.094Z,16.23
2017-04-27T23:02:48.153Z,15.62
2017-04-27T23:05:16.635Z,15.43
2017-04-27T23:07:46.749Z,16.98
2017-04-27T23:10:15.102Z,15.73
2017-04-27T23:12:44.191Z,15.88
2017-04-27T23:15:13.240Z,17.27
2017-04-27T23:17:41.636Z,15.97
2017-04-27T23:20:10.943Z,15.30
2017-04-27T23:22:39.290Z,16.65
2017-04-27T23:25:07.602Z,16.30
2017-04-27T23:27:35.978Z,15.78
2017-04-27T23:30:04.878Z,16.45
2017-04-27T23:32:33.196Z,17.02
2017-04-27T23:35:01.650Z,18.43
2017-04-27T23:37:29.977Z,17.58
2017-04-27T23:39:58.337Z,18.70
2017-04-27T23:42:26.641Z,17.03
2017-04-27T23:44:55.744Z,17.78
2017-04-27T23:47:24.796Z,16.22
2017-04-27T23:49:53.104Z,19.35
2017-04-27T23:52:21.408Z,17.80
2017-04-27T23:54:49.714Z,17.77
2017-04-27T23:57:18.060Z,18.02
2017-04-27T23:59:47.147Z,18.40
